Time;durP1;ratioP1;P1;durP2;ratioP2;P2;SDS_P1;SDS_P2;PMS_P1;PMS_P2;Temp;Humidity;BMP_temperature;BMP_pressure;BME280_temperature;BME280_humidity;BME280_pressure;Samples;Min_cycle;Max_cycle;Signal;HPM_P1;HPM_P2
2022/05/09 00:01:11;;;;;;;;;;;19.20;91.60;;;;;;4590003;19;19925;-26
2022/05/09 00:02:41;;;;;;;;;;;19.20;91.60;;;;;;4590344;19;19937;-26
2022/05/09 00:04:12;;;;;;;;;;;19.20;91.60;;;;;;4590289;19;19938;-27
2022/05/09 00:05:44;;;;;;;;;;;19.20;91.60;;;;;;4589983;19;19918;-27
2022/05/09 00:07:14;;;;;;;;;;;19.10;91.50;;;;;;4589985;19;19923;-26
2022/05/09 00:08:45;;;;;;;;;;;19.20;91.50;;;;;;4590189;19;19981;-26
2022/05/09 00:10:17;;;;;;;;;;;19.20;91.50;;;;;;4592603;19;20297;-24
2022/05/09 00:11:48;;;;;;;;;;;19.10;91.50;;;;;;4594872;19;19978;-26
2022/05/09 00:13:19;;;;;;;;;;;19.10;91.50;;;;;;4594483;19;20325;-24
2022/05/09 00:14:50;;;;;;;;;;;19.10;91.50;;;;;;4594113;19;20329;-27
2022/05/09 00:16:21;;;;;;;;;;;19.10;91.40;;;;;;4593571;19;19918;-25
2022/05/09 00:17:52;;;;;;;;;;;19.10;91.40;;;;;;4594486;19;19914;-24
2022/05/09 00:19:23;;;;;;;;;;;19.20;91.40;;;;;;4594554;19;19953;-25
2022/05/09 00:20:53;;;;;;;;;;;19.10;91.40;;;;;;4594996;19;20365;-27
2022/05/09 00:22:25;;;;;;;;;;;19.10;91.40;;;;;;4594671;19;19984;-24
2022/05/09 00:23:57;;;;;;;;;;;19.10;91.40;;;;;;4594245;19;20259;-26
2022/05/09 00:25:27;;;;;;;;;;;19.10;91.30;;;;;;4594560;19;19919;-26
2022/05/09 00:26:58;;;;;;;;;;;19.10;91.40;;;;;;4594902;19;19919;-24
2022/05/09 00:28:29;;;;;;;;;;;19.00;91.40;;;;;;4594673;19;19940;-25
2022/05/09 00:30:01;;;;;;;;;;;18.90;91.40;;;;;;4592798;19;19970;-26
2022/05/09 00:31:31;;;;;;;;;;;18.90;91.40;;;;;;4594331;19;20324;-25
2022/05/09 00:33:02;;;;;;;;;;;18.90;91.50;;;;;;4594450;19;20340;-26
2022/05/09 00:34:37;;;;;;;;;;;18.90;91.50;;;;;;4594162;19;19922;-27
2022/05/09 00:36:08;;;;;;;;;;;18.80;91.50;;;;;;4594273;19;19925;-25
2022/05/09 00:37:40;;;;;;;;;;;18.80;91.50;;;;;;4594215;19;20251;-25
2022/05/09 00:39:12;;;;;;;;;;;18.80;91.50;;;;;;4593478;19;19999;-28
2022/05/09 00:41:28;;;;;;;;;;;18.80;91.50;;;;;;4592846;19;19921;-24
2022/05/09 00:42:34;;;;;;;;;;;18.80;91.50;;;;;;4592846;19;19986;-24
2022/05/09 00:44:07;;;;;;;;;;;18.70;91.40;;;;;;4593819;19;19918;-24
2022/05/09 00:45:38;;;;;;;;;;;18.70;91.40;;;;;;4594075;19;19914;-26
2022/05/09 00:47:08;;;;;;;;;;;18.70;91.40;;;;;;4594045;19;20317;-25
2022/05/09 00:48:40;;;;;;;;;;;18.70;91.40;;;;;;4593812;19;19919;-24
2022/05/09 00:50:11;;;;;;;;;;;18.70;91.40;;;;;;4592132;19;20340;-24
2022/05/09 00:51:43;;;;;;;;;;;18.70;91.40;;;;;;4594077;19;19915;-24
2022/05/09 00:53:14;;;;;;;;;;;18.70;91.30;;;;;;4592643;19;19930;-25
2022/05/09 00:54:47;;;;;;;;;;;18.70;91.30;;;;;;4592855;19;19915;-24
2022/05/09 00:56:22;;;;;;;;;;;18.70;91.30;;;;;;4592795;19;19919;-25
2022/05/09 00:58:00;;;;;;;;;;;18.70;91.30;;;;;;4593502;19;19915;-27
2022/05/09 00:59:31;;;;;;;;;;;18.70;91.30;;;;;;4593429;19;19923;-25
2022/05/09 01:01:03;;;;;;;;;;;18.60;91.20;;;;;;4593576;19;20234;-27
2022/05/09 01:02:35;;;;;;;;;;;18.70;91.20;;;;;;4592856;19;19947;-27
2022/05/09 01:04:08;;;;;;;;;;;18.60;91.20;;;;;;4593255;19;19917;-27
2022/05/09 01:05:41;;;;;;;;;;;18.60;91.20;;;;;;4592292;19;19919;-26
2022/05/09 01:07:12;;;;;;;;;;;18.60;91.10;;;;;;4593278;19;19926;-24
2022/05/09 01:08:43;;;;;;;;;;;18.60;91.10;;;;;;4593573;19;19915;-24
2022/05/09 01:10:15;;;;;;;;;;;18.60;91.10;;;;;;4593541;19;20245;-26
2022/05/09 01:11:45;;;;;;;;;;;18.60;91.20;;;;;;4593277;19;19915;-25
2022/05/09 01:13:18;;;;;;;;;;;18.50;91.10;;;;;;4593797;19;19923;-27
2022/05/09 01:14:49;;;;;;;;;;;18.50;91.40;;;;;;4592605;19;19918;-28
2022/05/09 01:16:20;;;;;;;;;;;18.50;91.10;;;;;;4591837;19;19918;-25
2022/05/09 01:17:50;;;;;;;;;;;18.50;91.10;;;;;;4593326;19;19914;-25
2022/05/09 01:19:22;;;;;;;;;;;18.50;91.10;;;;;;4591962;19;20391;-26
2022/05/09 01:20:53;;;;;;;;;;;18.40;91.00;;;;;;4593020;19;19926;-25
2022/05/09 01:22:24;;;;;;;;;;;18.50;91.00;;;;;;4593104;19;19918;-26
2022/05/09 01:23:56;;;;;;;;;;;18.40;91.00;;;;;;4593198;19;20249;-24
2022/05/09 01:25:28;;;;;;;;;;;18.40;91.00;;;;;;4593463;19;20334;-26
2022/05/09 01:26:59;;;;;;;;;;;18.40;90.90;;;;;;4595441;19;19922;-26
2022/05/09 01:28:31;;;;;;;;;;;18.40;90.90;;;;;;4594873;19;20333;-26
2022/05/09 01:30:02;;;;;;;;;;;18.40;90.90;;;;;;4593027;19;19937;-27
2022/05/09 01:31:33;;;;;;;;;;;18.40;90.90;;;;;;4595529;19;19911;-27
2022/05/09 01:33:13;;;;;;;4.10;2.40;;;18.40;90.80;;;;;;4593113;19;19923;-27
2022/05/09 01:34:45;;;;;;;;;;;18.40;90.80;;;;;;4593717;19;19938;-27
2022/05/09 01:36:16;;;;;;;;;;;18.40;90.80;;;;;;4592458;19;19915;-27
2022/05/09 01:37:49;;;;;;;;;;;18.40;90.70;;;;;;4592989;19;20268;-28
2022/05/09 01:39:22;;;;;;;;;;;18.40;91.00;;;;;;4592211;19;19914;-27
2022/05/09 01:40:53;;;;;;;;;;;18.40;90.70;;;;;;4591689;19;19946;-24
2022/05/09 01:42:24;;;;;;;;;;;18.40;90.70;;;;;;4592149;19;19919;-28
2022/05/09 01:43:55;;;;;;;;;;;18.40;90.70;;;;;;4592948;19;19922;-27
2022/05/09 01:45:26;;;;;;;;;;;18.30;90.60;;;;;;4591471;19;20330;-26
2022/05/09 01:50:36;;;;;;;;;;;18.30;90.50;;;;;;4592704;19;19907;-24
2022/05/09 01:52:08;;;;;;;4.18;2.63;;;18.30;90.50;;;;;;4592690;19;19915;-25
2022/05/09 01:53:40;;;;;;;3.05;2.30;;;18.30;90.50;;;;;;4590282;19;20402;-26
2022/05/09 01:55:11;;;;;;;;;;;18.30;90.50;;;;;;4592220;19;20034;-26
2022/05/09 01:56:43;;;;;;;4.38;2.63;;;18.30;90.40;;;;;;4591795;19;20354;-27
2022/05/09 01:58:13;;;;;;;2.80;2.20;;;18.30;90.40;;;;;;4589337;19;20022;-26
2022/05/09 01:59:44;;;;;;;;;;;18.30;90.40;;;;;;4591624;19;20321;-24
2022/05/09 02:01:18;;;;;;;;;;;18.30;90.40;;;;;;4592607;19;19915;-26
2022/05/09 02:02:50;;;;;;;;;;;18.30;90.40;;;;;;4592917;19;19938;-26
2022/05/09 02:04:22;;;;;;;;;;;18.30;90.30;;;;;;4593219;19;19985;-24
2022/05/09 02:05:53;;;;;;;;;;;18.30;90.30;;;;;;4592339;19;19923;-25
2022/05/09 02:07:26;;;;;;;;;;;18.20;90.20;;;;;;4592587;19;19942;-25
2022/05/09 02:08:57;;;;;;;;;;;18.30;90.20;;;;;;4592597;19;19910;-24
2022/05/09 02:10:28;;;;;;;;;;;18.20;90.20;;;;;;4592883;19;19933;-24
2022/05/09 02:11:59;;;;;;;;;;;18.30;90.20;;;;;;4592220;19;19919;-25
2022/05/09 02:13:30;;;;;;;;;;;18.20;90.10;;;;;;4592117;19;19922;-24
2022/05/09 02:15:01;;;;;;;;;;;18.30;90.10;;;;;;4592339;19;20004;-30
2022/05/09 02:16:32;;;;;;;;;;;18.20;90.00;;;;;;4591382;19;20278;-26
2022/05/09 02:18:03;;;;;;;;;;;18.20;90.00;;;;;;4592318;19;19914;-27
2022/05/09 02:19:34;;;;;;;;;;;18.20;90.00;;;;;;4592453;19;20222;-25
2022/05/09 02:21:05;;;;;;;;;;;18.20;90.00;;;;;;4592669;19;19935;-28
2022/05/09 02:22:36;;;;;;;;;;;18.20;90.00;;;;;;4592139;19;19915;-27
2022/05/09 02:24:07;;;;;;;;;;;18.20;89.90;;;;;;4592289;19;19919;-25
2022/05/09 02:25:39;;;;;;;;;;;18.20;89.80;;;;;;4592121;19;20556;-26
2022/05/09 02:27:10;;;;;;;;;;;18.20;89.80;;;;;;4592212;19;19932;-25
2022/05/09 02:28:41;;;;;;;;;;;18.20;89.80;;;;;;4591671;19;19915;-27
2022/05/09 02:30:12;;;;;;;;;;;18.20;89.70;;;;;;4591136;19;19946;-25
2022/05/09 02:31:43;;;;;;;;;;;18.20;89.70;;;;;;4591583;19;19915;-27
2022/05/09 02:33:14;;;;;;;;;;;18.20;90.00;;;;;;4591007;19;19926;-26
2022/05/09 02:34:45;;;;;;;;;;;18.20;89.50;;;;;;4592001;19;20348;-25
2022/05/09 02:36:16;;;;;;;;;;;18.20;89.50;;;;;;4592148;19;19918;-23
2022/05/09 02:37:47;;;;;;;;;;;18.20;89.50;;;;;;4592569;19;19914;-25
2022/05/09 02:39:19;;;;;;;;;;;18.20;89.40;;;;;;4591838;19;19966;-27
2022/05/09 02:40:50;;;;;;;;;;;18.20;89.30;;;;;;4591923;19;19915;-26
2022/05/09 02:42:20;;;;;;;;;;;18.20;89.30;;;;;;4590461;19;19970;-27
2022/05/09 02:43:51;;;;;;;;;;;18.20;89.20;;;;;;4591272;19;20264;-25
2022/05/09 02:45:23;;;;;;;;;;;18.20;89.10;;;;;;4591621;19;19911;-24
2022/05/09 02:46:53;;;;;;;;;;;18.20;89.10;;;;;;4591855;19;19915;-26
2022/05/09 02:48:24;;;;;;;;;;;18.20;89.00;;;;;;4591717;19;19942;-28
2022/05/09 02:49:55;;;;;;;;;;;18.20;89.00;;;;;;4590407;19;19942;-29
2022/05/09 02:51:27;;;;;;;;;;;18.10;88.80;;;;;;4591695;19;19952;-26
2022/05/09 02:52:58;;;;;;;;;;;18.10;88.80;;;;;;4591912;19;20100;-26
2022/05/09 02:54:29;;;;;;;;;;;18.10;89.40;;;;;;4591616;19;19925;-25
2022/05/09 02:56:00;;;;;;;;;;;18.10;88.70;;;;;;4591274;19;19919;-26
2022/05/09 02:57:31;;;;;;;;;;;18.10;88.70;;;;;;4591578;19;19919;-27
2022/05/09 02:59:02;;;;;;;;;;;18.10;88.70;;;;;;4591775;19;19915;-26
2022/05/09 03:00:32;;;;;;;;;;;18.10;88.60;;;;;;4591468;19;19936;-25
2022/05/09 03:02:03;;;;;;;;;;;18.10;88.50;;;;;;4591081;19;19925;-28
2022/05/09 03:05:24;;;;;;;;;;;18.10;88.40;;;;;;4590995;19;19933;-25
2022/05/09 03:06:57;;;;;;;;;;;18.10;88.30;;;;;;4591734;19;19930;-27
2022/05/09 03:08:29;;;;;;;;;;;18.10;88.30;;;;;;4591140;19;20329;-27
2022/05/09 03:10:00;;;;;;;;;;;18.10;88.20;;;;;;4590286;19;19923;-23
2022/05/09 03:11:31;;;;;;;;;;;18.10;88.10;;;;;;4590326;19;19925;-28
2022/05/09 03:13:03;;;;;;;;;;;18.10;88.10;;;;;;4591071;19;19915;-27
2022/05/09 03:14:34;;;;;;;;;;;18.10;88.10;;;;;;4590845;19;19919;-24
2022/05/09 03:16:05;;;;;;;;;;;18.10;88.00;;;;;;4590178;19;19918;-27
2022/05/09 03:17:36;;;;;;;;;;;18.10;88.00;;;;;;4589378;19;19922;-25
2022/05/09 03:19:07;;;;;;;;;;;18.10;87.90;;;;;;4590724;19;20325;-27
2022/05/09 03:20:38;;;;;;;;;;;18.10;87.90;;;;;;4591060;19;19915;-24
2022/05/09 03:22:09;;;;;;;;;;;18.10;87.80;;;;;;4590965;19;19990;-27
2022/05/09 03:23:40;;;;;;;;;;;18.10;87.80;;;;;;4591072;19;20245;-27
2022/05/09 03:25:11;;;;;;;;;;;18.10;87.70;;;;;;4590765;19;19915;-27
2022/05/09 03:26:42;;;;;;;;;;;18.10;87.70;;;;;;4591084;19;19915;-28
2022/05/09 03:28:15;;;;;;;;;;;18.10;87.70;;;;;;4591390;19;19915;-27
2022/05/09 03:29:45;;;;;;;;;;;18.10;87.60;;;;;;4590375;19;19992;-25
2022/05/09 03:31:16;;;;;;;;;;;18.10;87.60;;;;;;4590595;19;19996;-27
2022/05/09 03:32:47;;;;;;;;;;;18.10;87.50;;;;;;4591149;19;19986;-25
2022/05/09 03:34:19;;;;;;;;;;;18.10;87.50;;;;;;4590960;19;19919;-27
2022/05/09 03:35:50;;;;;;;;;;;18.10;87.50;;;;;;4590492;19;19921;-27
2022/05/09 03:37:21;;;;;;;;;;;18.10;87.50;;;;;;4590578;19;20326;-27
2022/05/09 03:38:52;;;;;;;;;;;18.10;87.50;;;;;;4590971;19;19918;-30
2022/05/09 03:40:23;;;;;;;;;;;18.10;87.50;;;;;;4590849;19;19978;-30
2022/05/09 03:41:54;;;;;;;;;;;18.10;87.40;;;;;;4590471;19;19910;-23
2022/05/09 03:43:24;;;;;;;;;;;18.10;87.40;;;;;;4590517;19;19911;-27
2022/05/09 03:44:55;;;;;;;;;;;18.10;87.40;;;;;;4594095;19;20285;-27
2022/05/09 03:46:26;;;;;;;;;;;18.10;87.40;;;;;;4595748;19;19978;-26
2022/05/09 03:47:58;;;;;;;;;;;18.10;87.80;;;;;;4595169;19;19925;-27
2022/05/09 03:49:29;;;;;;;;;;;18.00;87.20;;;;;;4594424;19;19911;-26
2022/05/09 03:51:01;;;;;;;;;;;18.10;87.20;;;;;;4594778;19;19923;-26
2022/05/09 03:52:32;;;;;;;;;;;18.10;87.30;;;;;;4592658;19;20330;-26
2022/05/09 03:54:03;;;;;;;;;;;18.00;87.20;;;;;;4594396;19;19947;-26
2022/05/09 03:55:34;;;;;;;;;;;18.10;87.20;;;;;;4594024;19;19914;-25
2022/05/09 03:57:05;;;;;;;;;;;18.00;87.10;;;;;;4594502;19;20352;-26
2022/05/09 03:58:36;;;;;;;;;;;18.00;87.10;;;;;;4593813;19;19919;-28
2022/05/09 04:00:08;;;;;;;;;;;18.00;87.10;;;;;;4594735;19;20012;-25
2022/05/09 04:01:39;;;;;;;;;;;18.10;87.20;;;;;;4596566;19;19941;-29
2022/05/09 04:03:09;;;;;;;;;;;18.10;87.20;;;;;;4595372;19;19919;-29
2022/05/09 04:04:41;;;;;;;;;;;18.00;87.10;;;;;;4594759;19;19925;-27
2022/05/09 04:06:12;;;;;;;;;;;18.00;87.10;;;;;;4595162;19;19918;-26
2022/05/09 04:07:44;;;;;;;;;;;18.10;87.10;;;;;;4595470;19;19910;-27
2022/05/09 04:09:14;;;;;;;;;;;18.20;87.00;;;;;;4595329;19;19917;-25
2022/05/09 04:10:46;;;;;;;;;;;18.20;86.70;;;;;;4596792;19;20054;-24
2022/05/09 04:12:17;;;;;;;;;;;18.30;86.50;;;;;;4593818;19;19938;-26
2022/05/09 04:13:48;;;;;;;;;;;18.40;86.20;;;;;;4595789;19;20356;-26
2022/05/09 04:17:10;;;;;;;;;;;18.50;85.70;;;;;;4595539;19;19993;-25
2022/05/09 04:18:41;;;;;;;;;;;18.60;85.50;;;;;;4594840;19;19918;-24
2022/05/09 04:20:12;;;;;;;;;;;18.70;85.40;;;;;;4594682;19;20316;-26
2022/05/09 04:21:43;;;;;;;;;;;18.70;85.20;;;;;;4595050;19;19911;-26
2022/05/09 04:23:14;;;;;;;;;;;18.70;85.10;;;;;;4594589;19;19915;-24
2022/05/09 04:24:45;;;;;;;;;;;18.70;85.00;;;;;;4594894;19;19911;-29
2022/05/09 04:26:16;;;;;;;;;;;18.70;85.00;;;;;;4596632;19;19915;-27
2022/05/09 04:27:47;;;;;;;;;;;18.70;84.90;;;;;;4594314;19;19919;-27
2022/05/09 04:29:18;;;;;;;;;;;18.80;84.90;;;;;;4594078;19;19915;-30
2022/05/09 04:30:50;;;;;;;;;;;18.80;85.10;;;;;;4594563;19;19911;-25
2022/05/09 04:32:20;;;;;;;;;;;18.80;84.90;;;;;;4594793;19;19935;-26
2022/05/09 04:33:52;;;;;;;;;;;18.80;84.90;;;;;;4596743;19;19915;-26
2022/05/09 04:35:24;;;;;;;;;;;18.80;84.80;;;;;;4596218;19;20312;-26
2022/05/09 04:36:54;;;;;;;;;;;18.90;84.70;;;;;;4593640;19;19915;-24
2022/05/09 04:38:26;;;;;;;;;;;18.90;84.60;;;;;;4594064;19;19915;-25
2022/05/09 04:39:59;;;;;;;;;;;19.10;84.40;;;;;;4594191;19;19919;-25
2022/05/09 04:41:32;;;;;;;;;;;19.20;84.10;;;;;;4595613;19;19918;-26
2022/05/09 04:43:03;;;;;;;;;;;19.30;83.90;;;;;;4593059;19;19930;-27
2022/05/09 04:44:34;;;;;;;;;;;19.30;83.70;;;;;;4593551;19;19911;-25
2022/05/09 04:46:05;;;;;;;;;;;19.40;84.40;;;;;;4594216;19;19919;-28
2022/05/09 04:47:36;;;;;;;;;;;19.50;83.40;;;;;;4593760;19;19917;-24
2022/05/09 04:49:06;;;;;;;;;;;19.50;83.40;;;;;;4594414;19;20249;-25
2022/05/09 04:50:37;;;;;;;;;;;19.50;83.40;;;;;;4593497;19;19915;-26
2022/05/09 04:52:08;;;;;;;;;;;19.50;83.40;;;;;;4594070;19;19919;-25
2022/05/09 04:53:39;;;;;;;;;;;19.40;83.50;;;;;;4592211;19;19930;-23
2022/05/09 04:55:11;;;;;;;;;;;19.40;83.60;;;;;;4592132;19;20373;-26
2022/05/09 04:56:42;;;;;;;;;;;19.40;83.70;;;;;;4593520;19;20347;-24
2022/05/09 04:58:13;;;;;;;;;;;19.40;83.80;;;;;;4591190;19;19952;-26
2022/05/09 04:59:44;;;;;;;;;;;19.40;83.90;;;;;;4593326;19;19919;-27
2022/05/09 05:01:15;;;;;;;;;;;19.40;84.00;;;;;;4593857;19;19915;-26
2022/05/09 05:02:46;;;;;;;;;;;19.40;84.00;;;;;;4593540;19;19918;-27
2022/05/09 05:04:17;;;;;;;;;;;19.40;84.10;;;;;;4594110;19;19926;-26
2022/05/09 05:05:49;;;;;;;;;;;19.30;84.10;;;;;;4594267;19;19918;-24
2022/05/09 05:07:20;;;;;;;;;;;19.40;84.20;;;;;;4593497;19;19941;-24
2022/05/09 05:08:51;;;;;;;;;;;19.40;84.20;;;;;;4593509;19;19915;-26
2022/05/09 05:10:22;;;;;;;;;;;19.40;84.30;;;;;;4591923;19;20373;-26
2022/05/09 05:11:53;;;;;;;;;;;19.30;84.30;;;;;;4593700;19;19928;-27
2022/05/09 05:13:25;;;;;;;;;;;19.30;84.40;;;;;;4593274;19;20329;-29
2022/05/09 05:14:56;;;;;;;;;;;19.30;84.40;;;;;;4593687;19;19942;-27
2022/05/09 05:18:20;;;;;;;;;;;19.40;84.50;;;;;;4593884;19;19923;-26
2022/05/09 05:19:50;;;;;;;;;;;19.30;84.60;;;;;;4593131;19;19919;-24
2022/05/09 05:21:21;;;;;;;;;;;19.30;84.80;;;;;;4593111;19;19919;-24
2022/05/09 05:22:52;;;;;;;;;;;19.30;84.70;;;;;;4593347;19;19911;-27
2022/05/09 05:24:24;;;;;;;;;;;19.30;84.60;;;;;;4593806;19;19915;-25
2022/05/09 05:25:55;;;;;;;;;;;19.30;85.20;;;;;;4593251;19;19910;-25
2022/05/09 05:27:26;;;;;;;;;;;19.30;84.70;;;;;;4593163;19;19926;-26
2022/05/09 05:28:57;;;;;;;;;;;19.30;84.80;;;;;;4593573;19;19911;-24
2022/05/09 05:30:28;;;;;;;;;;;19.30;84.80;;;;;;4591807;19;20159;-24
2022/05/09 05:31:59;;;;;;;;;;;19.30;84.80;;;;;;4592286;19;19918;-24
2022/05/09 05:33:30;;;;;;;;;;;19.30;84.80;;;;;;4592865;19;19914;-27
2022/05/09 05:35:01;;;;;;;;;;;19.30;84.80;;;;;;4593212;19;19921;-25
2022/05/09 05:36:32;;;;;;;;;;;19.30;84.80;;;;;;4592881;19;19915;-22
2022/05/09 05:38:03;;;;;;;;;;;19.30;84.80;;;;;;4593252;19;19922;-26
2022/05/09 05:39:36;;;;;;;;;;;19.30;84.80;;;;;;4593136;19;19919;-26
2022/05/09 05:41:07;;;;;;;;;;;19.30;84.90;;;;;;4593291;19;19907;-26
2022/05/09 05:42:39;;;;;;;;;;;19.30;85.00;;;;;;4592804;19;19932;-26
2022/05/09 05:44:11;;;;;;;;;;;19.20;85.10;;;;;;4592706;19;19922;-25
2022/05/09 05:45:46;;;;;;;;;;;19.20;85.10;;;;;;4593282;19;20341;-26
2022/05/09 05:47:17;;;;;;;;;;;19.20;85.10;;;;;;4593625;19;20243;-26
2022/05/09 05:48:49;;;;;;;;;;;19.20;85.00;;;;;;4592572;19;20261;-26
2022/05/09 05:50:20;;;;;;;;;;;19.20;85.00;;;;;;4591586;19;19926;-27
2022/05/09 05:51:51;;;;;;;;;;;19.20;85.00;;;;;;4593127;19;19911;-24
2022/05/09 05:53:22;;;;;;;;;;;19.30;85.00;;;;;;4592813;19;19936;-24
2022/05/09 05:54:53;;;;;;;;;;;19.30;85.00;;;;;;4592820;19;19934;-25
2022/05/09 05:56:24;;;;;;;;;;;19.30;85.00;;;;;;4592646;19;20015;-26
2022/05/09 05:57:55;;;;;;;;;;;19.30;84.90;;;;;;4593399;19;19915;-26
2022/05/09 05:59:26;;;;;;;;;;;19.30;84.90;;;;;;4592421;19;19914;-25
2022/05/09 06:00:57;;;;;;;;;;;19.30;84.90;;;;;;4592900;19;20010;-27
2022/05/09 06:02:28;;;;;;;;;;;19.30;84.90;;;;;;4592874;19;19919;-25
2022/05/09 06:03:59;;;;;;;;;;;19.30;84.90;;;;;;4592661;19;19918;-28
2022/05/09 06:05:30;;;;;;;;;;;19.30;84.90;;;;;;4591237;19;19992;-25
2022/05/09 06:07:01;;;;;;;;;;;19.30;84.90;;;;;;4589810;19;19922;-26
2022/05/09 06:08:33;;;;;;;;;;;19.30;84.90;;;;;;4593115;19;20322;-26
2022/05/09 06:10:04;;;;;;;;;;;19.30;84.90;;;;;;4591659;19;19932;-27
2022/05/09 06:11:35;;;;;;;;;;;19.20;84.90;;;;;;4592400;19;19915;-28
2022/05/09 06:13:06;;;;;;;;;;;19.20;84.90;;;;;;4592471;19;19948;-25
2022/05/09 06:14:37;;;;;;;;;;;19.20;84.90;;;;;;4592920;19;19915;-24
2022/05/09 06:16:08;;;;;;;;;;;19.20;84.90;;;;;;4590850;19;19931;-26
2022/05/09 06:17:39;;;;;;;;;;;19.20;84.90;;;;;;4590545;19;19995;-25
2022/05/09 06:19:10;;;;;;;;;;;19.20;84.80;;;;;;4591556;19;19963;-25
2022/05/09 06:20:43;;;;;;;;;;;19.20;84.80;;;;;;4591944;19;19915;-26
2022/05/09 06:22:13;;;;;;;;;;;19.20;84.80;;;;;;4590918;19;20332;-28
2022/05/09 06:23:44;;;;;;;;;;;19.20;84.80;;;;;;4591504;19;19921;-24
2022/05/09 06:25:17;;;;;;;;;;;19.20;84.80;;;;;;4592472;19;19978;-25
2022/05/09 06:26:49;;;;;;;;;;;19.20;84.90;;;;;;4592617;19;19915;-25
2022/05/09 06:28:21;;;;;;;;;;;19.20;84.80;;;;;;4591893;19;19919;-25
2022/05/09 06:29:52;;;;;;;;;;;19.20;84.90;;;;;;4590870;19;19932;-26
2022/05/09 06:31:23;;;;;;;;;;;19.20;84.90;;;;;;4592393;19;19922;-26
2022/05/09 06:32:54;;;;;;;;;;;19.20;84.80;;;;;;4591992;19;19944;-25
2022/05/09 06:34:25;;;;;;;;;;;19.20;84.80;;;;;;4591902;19;19923;-24
2022/05/09 06:35:56;;;;;;;;;;;19.20;84.80;;;;;;4592202;19;19919;-27
2022/05/09 06:37:29;;;;;;;;;;;19.20;84.80;;;;;;4590912;19;19919;-24
2022/05/09 06:39:00;;;;;;;;;;;19.20;84.70;;;;;;4591215;19;20325;-24
2022/05/09 06:40:31;;;;;;;;;;;19.20;84.80;;;;;;4591967;19;19966;-25
2022/05/09 06:42:05;;;;;;;;;;;19.20;84.70;;;;;;4592063;19;19979;-26
2022/05/09 06:43:37;;;;;;;;;;;19.20;84.70;;;;;;4592074;19;19934;-24
2022/05/09 06:45:07;;;;;;;;;;;19.30;84.60;;;;;;4591471;19;19918;-25
2022/05/09 06:46:38;;;;;;;;;;;19.30;84.50;;;;;;4591876;19;19918;-24
2022/05/09 06:48:10;;;;;;;;;;;19.30;84.60;;;;;;4591657;19;19914;-27
2022/05/09 06:49:41;;;;;;;;;;;19.30;84.50;;;;;;4591587;19;19915;-24
2022/05/09 06:51:12;;;;;;;;;;;19.30;84.40;;;;;;4591498;19;20242;-25
2022/05/09 06:52:42;;;;;;;;;;;19.30;84.40;;;;;;4590837;19;19927;-27
2022/05/09 06:54:16;;;;;;;;;;;19.40;84.70;;;;;;4591636;19;19940;-26
2022/05/09 06:55:48;;;;;;;;;;;19.40;84.30;;;;;;4591202;19;19927;-25
2022/05/09 06:57:18;;;;;;;;;;;19.40;84.30;;;;;;4592145;19;19911;-26
2022/05/09 06:58:49;;;;;;;;;;;19.30;84.20;;;;;;4590712;19;19930;-24
2022/05/09 07:00:21;;;;;;;;;;;19.30;84.10;;;;;;4592202;19;19915;-26
2022/05/09 07:01:52;;;;;;;;;;;19.30;84.10;;;;;;4589654;19;19915;-25
2022/05/09 07:03:23;;;;;;;;;;;19.30;84.10;;;;;;4590751;19;20245;-26
2022/05/09 07:04:54;;;;;;;;;;;19.30;84.00;;;;;;4591748;19;20317;-28
2022/05/09 07:06:25;;;;;;;;;;;19.30;84.00;;;;;;4591864;19;19922;-23
2022/05/09 07:07:56;;;;;;;;;;;19.30;84.00;;;;;;4591048;19;19926;-25
2022/05/09 07:09:27;;;;;;;;;;;19.30;83.80;;;;;;4591023;19;19925;-26
2022/05/09 07:10:58;;;;;;;;;;;19.30;83.80;;;;;;4592166;19;19936;-24
2022/05/09 07:12:29;;;;;;;;;;;19.40;83.80;;;;;;4591233;19;19922;-25
2022/05/09 07:14:00;;;;;;;;;;;19.40;83.80;;;;;;4591081;19;19967;-26
2022/05/09 07:15:31;;;;;;;;;;;19.40;83.80;;;;;;4591254;19;19926;-28
2022/05/09 07:17:02;;;;;;;;;;;19.40;83.60;;;;;;4590694;19;19919;-26
2022/05/09 07:18:33;;;;;;;;;;;19.40;83.30;;;;;;4594090;19;19926;-26
2022/05/09 07:20:04;;;;;;;;;;;19.40;83.40;;;;;;4595883;19;19923;-25
2022/05/09 07:21:35;;;;;;;;;;;19.40;83.40;;;;;;4595816;19;19933;-26
2022/05/09 07:23:07;;;;;;;;;;;19.40;83.20;;;;;;4596267;19;19911;-26
2022/05/09 07:24:40;;;;;;;;;;;19.50;83.20;;;;;;4595740;19;19914;-26
2022/05/09 07:26:11;;;;;;;;;;;19.50;83.00;;;;;;4595802;19;20276;-27
2022/05/09 07:27:42;;;;;;;;;;;19.50;83.00;;;;;;4596242;19;19915;-26
2022/05/09 07:29:13;;;;;;;;;;;19.50;82.90;;;;;;4595808;19;19915;-24
2022/05/09 07:30:44;;;;;;;;;;;19.50;82.80;;;;;;4593544;19;20307;-26
2022/05/09 07:32:15;;;;;;;;;;;19.50;82.80;;;;;;4595982;19;19926;-23
2022/05/09 07:33:46;;;;;;;;;;;19.50;82.60;;;;;;4596133;19;19926;-26
2022/05/09 07:35:17;;;;;;;;;;;19.50;83.20;;;;;;4595527;19;19935;-27
2022/05/09 07:36:48;;;;;;;;;;;19.50;82.50;;;;;;4595835;19;19930;-25
2022/05/09 07:38:19;;;;;;;;;;;19.50;82.50;;;;;;4595791;19;20342;-24
2022/05/09 07:39:50;;;;;;;;;;;19.40;82.40;;;;;;4595580;19;19919;-27
2022/05/09 07:41:21;;;;;;;;;;;19.40;82.60;;;;;;4595563;19;19925;-27
2022/05/09 07:42:51;;;;;;;;;;;19.50;82.50;;;;;;4595644;19;19925;-27
2022/05/09 07:44:22;;;;;;;;;;;19.60;82.10;;;;;;4595961;19;19923;-28
2022/05/09 07:45:54;;;;;;;;;;;19.60;81.90;;;;;;4595381;19;19919;-25
2022/05/09 07:47:25;;;;;;;;;;;19.60;81.80;;;;;;4595117;19;19915;-25
2022/05/09 07:48:56;;;;;;;;;;;19.60;81.70;;;;;;4595178;19;19985;-24
2022/05/09 07:50:27;;;;;;;;;;;19.60;81.70;;;;;;4593923;19;20261;-24
2022/05/09 07:51:58;;;;;;;;;;;19.50;81.60;;;;;;4595062;19;19915;-25
2022/05/09 07:53:30;;;;;;;;;;;19.50;81.50;;;;;;4594999;19;19923;-26
2022/05/09 07:55:01;;;;;;;;;;;19.50;81.50;;;;;;4595462;19;19922;-26
2022/05/09 07:56:32;;;;;;;;;;;19.50;81.50;;;;;;4594717;19;19923;-29
2022/05/09 07:58:03;;;;;;;;;;;19.50;81.40;;;;;;4595020;19;19919;-26
2022/05/09 07:59:35;;;;;;;;;;;19.50;81.30;;;;;;4595532;19;19921;-27
2022/05/09 08:01:05;;;;;;;;;;;19.50;81.40;;;;;;4595103;19;19947;-24
2022/05/09 08:02:39;;;;;;;;;;;19.50;81.20;;;;;;4595128;19;20259;-24
2022/05/09 08:04:10;;;;;;;;;;;19.50;81.20;;;;;;4595012;19;19997;-24
2022/05/09 08:05:43;;;;;;;;;;;19.50;81.20;;;;;;4594773;19;20002;-23
2022/05/09 08:07:14;;;;;;;;;;;19.50;81.10;;;;;;4595435;19;19971;-27
2022/05/09 08:08:48;;;;;;;;;;;19.50;81.00;;;;;;4595099;19;19927;-26
2022/05/09 08:10:19;;;;;;;;;;;19.50;81.00;;;;;;4593291;19;19927;-25
2022/05/09 08:11:50;;;;;;;;;;;19.50;80.90;;;;;;4594921;19;20317;-26
2022/05/09 08:13:21;;;;;;;;;;;19.50;80.80;;;;;;4595123;19;19915;-27
2022/05/09 08:14:52;;;;;;;;;;;19.50;80.70;;;;;;4594587;19;19915;-27
2022/05/09 08:16:26;;;;;;;;;;;19.50;80.80;;;;;;4594466;19;19911;-25
2022/05/09 08:17:58;;;;;;;;;;;19.50;80.80;;;;;;4595001;19;19963;-26
2022/05/09 08:19:31;;;;;;;;;;;19.50;80.60;;;;;;4593544;19;20332;-26
2022/05/09 08:21:03;;;;;;;;;;;19.50;80.60;;;;;;4594107;19;19932;-26
2022/05/09 08:22:34;;;;;;;;;;;19.50;80.50;;;;;;4594674;19;19918;-27
2022/05/09 08:24:05;;;;;;;;;;;19.50;80.50;;;;;;4594980;19;19915;-24
2022/05/09 08:25:37;;;;;;;;;;;19.50;80.40;;;;;;4595004;19;20314;-25
2022/05/09 08:27:08;;;;;;;;;;;19.50;80.50;;;;;;4594469;19;19924;-25
2022/05/09 08:28:39;;;;;;;;;;;19.50;80.30;;;;;;4594626;19;19923;-26
2022/05/09 08:30:12;;;;;;;;;;;19.50;80.30;;;;;;4591679;19;19915;-25
2022/05/09 08:31:43;;;;;;;;;;;19.50;80.20;;;;;;4594135;19;19914;-24
2022/05/09 08:33:15;;;;;;;;;;;19.50;80.20;;;;;;4594454;19;19952;-26
2022/05/09 08:34:46;;;;;;;;;;;19.50;80.80;;;;;;4594309;19;20340;-27
2022/05/09 08:38:07;;;;;;;;;;;19.50;80.10;;;;;;4593613;19;19929;-26
2022/05/09 08:39:38;;;;;;;;;;;19.50;80.10;;;;;;4593542;19;19929;-24
2022/05/09 08:41:11;;;;;;;;;;;19.50;80.00;;;;;;4594574;19;20320;-26
2022/05/09 08:42:45;;;;;;;;;;;19.50;80.00;;;;;;4594150;19;19986;-23
2022/05/09 08:44:20;;;;;;;;;;;19.50;80.20;;;;;;4593313;19;19973;-24
2022/05/09 08:46:04;;;;;;;;;;;19.50;79.70;;;;;;4592916;19;19936;-24
2022/05/09 08:47:41;;;;;;;;;;;19.50;79.70;;;;;;4592729;19;19973;-26
2022/05/09 08:49:12;;;;;;;;;;;19.50;79.60;;;;;;4593867;19;19934;-27
2022/05/09 08:50:48;;;;;;;;;;;19.50;79.60;;;;;;4592633;19;19915;-27
2022/05/09 08:52:22;;;;;;;;;;;19.50;79.50;;;;;;4593812;19;19915;-25
2022/05/09 08:53:54;;;;;;;;;;;19.50;79.40;;;;;;4593608;19;19928;-25
2022/05/09 08:55:32;;;;;;;;;;;19.50;79.40;;;;;;4592980;19;19915;-27
2022/05/09 08:57:04;;;;;;;;;;;19.50;79.20;;;;;;4593367;19;19922;-25
2022/05/09 08:59:14;;;;;;;;;;;19.50;79.30;;;;;;4593103;19;20373;-28
2022/05/09 09:00:45;;;;;;;;;;;19.50;79.20;;;;;;4591502;19;19915;-26
2022/05/09 09:02:19;;;;;;;;;;;19.50;79.10;;;;;;4591895;19;19935;-24
2022/05/09 09:04:00;;;;;;;;;;;19.50;79.00;;;;;;4591791;19;19934;-25